sensor_id;sensor_type;location;lat;lon;timestamp;P1;durP1;ratioP1;P2;durP2;ratioP2
70169;SDS011;57543;45.442;9.212;2023-12-28T00:01:40;50.35;;;27.92;;
70169;SDS011;57543;45.442;9.212;2023-12-28T00:04:45;47.60;;;28.03;;
70169;SDS011;57543;45.442;9.212;2023-12-28T00:07:48;44.08;;;28.42;;
70169;SDS011;57543;45.442;9.212;2023-12-28T00:11:00;46.35;;;27.30;;
70169;SDS011;57543;45.442;9.212;2023-12-28T00:14:03;45.25;;;28.08;;
70169;SDS011;57543;45.442;9.212;2023-12-28T00:17:07;45.45;;;28.33;;
70169;SDS011;57543;45.442;9.212;2023-12-28T00:20:11;43.90;;;27.63;;
70169;SDS011;57543;45.442;9.212;2023-12-28T00:23:15;46.70;;;27.55;;
70169;SDS011;57543;45.442;9.212;2023-12-28T00:26:19;46.92;;;29.17;;
70169;SDS011;57543;45.442;9.212;2023-12-28T00:29:28;48.95;;;28.48;;
70169;SDS011;57543;45.442;9.212;2023-12-28T00:32:33;49.15;;;28.40;;
70169;SDS011;57543;45.442;9.212;2023-12-28T00:35:36;45.03;;;27.53;;
70169;SDS011;57543;45.442;9.212;2023-12-28T00:38:40;53.13;;;28.85;;
70169;SDS011;57543;45.442;9.212;2023-12-28T00:41:44;47.92;;;28.00;;
70169;SDS011;57543;45.442;9.212;2023-12-28T00:44:47;46.92;;;28.42;;
70169;SDS011;57543;45.442;9.212;2023-12-28T00:47:51;49.00;;;29.73;;
70169;SDS011;57543;45.442;9.212;2023-12-28T00:51:00;46.50;;;28.13;;
70169;SDS011;57543;45.442;9.212;2023-12-28T00:54:05;47.40;;;27.85;;
70169;SDS011;57543;45.442;9.212;2023-12-28T00:57:10;51.67;;;30.10;;
70169;SDS011;57543;45.442;9.212;2023-12-28T01:00:16;47.20;;;28.40;;
70169;SDS011;57543;45.442;9.212;2023-12-28T01:03:19;49.20;;;28.75;;
70169;SDS011;57543;45.442;9.212;2023-12-28T01:06:23;48.33;;;28.60;;
70169;SDS011;57543;45.442;9.212;2023-12-28T01:09:31;49.25;;;29.80;;
70169;SDS011;57543;45.442;9.212;2023-12-28T01:12:38;47.63;;;28.73;;
70169;SDS011;57543;45.442;9.212;2023-12-28T01:15:41;49.60;;;28.60;;
70169;SDS011;57543;45.442;9.212;2023-12-28T01:18:46;46.65;;;27.70;;
70169;SDS011;57543;45.442;9.212;2023-12-28T01:21:50;49.10;;;27.60;;
70169;SDS011;57543;45.442;9.212;2023-12-28T01:24:53;45.38;;;27.27;;
70169;SDS011;57543;45.442;9.212;2023-12-28T01:27:56;47.15;;;28.58;;
70169;SDS011;57543;45.442;9.212;2023-12-28T01:31:00;48.28;;;29.10;;
70169;SDS011;57543;45.442;9.212;2023-12-28T01:34:03;46.92;;;28.83;;
70169;SDS011;57543;45.442;9.212;2023-12-28T01:37:07;46.23;;;27.13;;
70169;SDS011;57543;45.442;9.212;2023-12-28T01:40:13;48.97;;;28.08;;
70169;SDS011;57543;45.442;9.212;2023-12-28T01:43:18;48.50;;;28.60;;
70169;SDS011;57543;45.442;9.212;2023-12-28T01:46:25;50.17;;;28.55;;
70169;SDS011;57543;45.442;9.212;2023-12-28T01:49:28;47.10;;;27.75;;
70169;SDS011;57543;45.442;9.212;2023-12-28T01:52:31;53.27;;;30.27;;
70169;SDS011;57543;45.442;9.212;2023-12-28T01:55:35;47.33;;;29.08;;
70169;SDS011;57543;45.442;9.212;2023-12-28T01:58:40;53.55;;;29.65;;
70169;SDS011;57543;45.442;9.212;2023-12-28T02:01:46;49.65;;;28.88;;
70169;SDS011;57543;45.442;9.212;2023-12-28T02:04:50;47.92;;;29.00;;
70169;SDS011;57543;45.442;9.212;2023-12-28T02:07:54;47.53;;;27.77;;
70169;SDS011;57543;45.442;9.212;2023-12-28T02:10:59;45.30;;;27.70;;
70169;SDS011;57543;45.442;9.212;2023-12-28T02:14:06;47.10;;;27.75;;
70169;SDS011;57543;45.442;9.212;2023-12-28T02:17:14;50.08;;;30.00;;
70169;SDS011;57543;45.442;9.212;2023-12-28T02:20:23;46.92;;;28.88;;
70169;SDS011;57543;45.442;9.212;2023-12-28T02:23:28;50.00;;;29.47;;
70169;SDS011;57543;45.442;9.212;2023-12-28T02:26:38;45.95;;;26.77;;
70169;SDS011;57543;45.442;9.212;2023-12-28T02:29:41;46.60;;;27.63;;
70169;SDS011;57543;45.442;9.212;2023-12-28T02:36:12;45.08;;;27.13;;
70169;SDS011;57543;45.442;9.212;2023-12-28T02:39:19;47.53;;;27.50;;
70169;SDS011;57543;45.442;9.212;2023-12-28T02:42:24;52.53;;;28.08;;
70169;SDS011;57543;45.442;9.212;2023-12-28T02:45:28;52.35;;;28.55;;
70169;SDS011;57543;45.442;9.212;2023-12-28T02:48:32;51.35;;;28.38;;
70169;SDS011;57543;45.442;9.212;2023-12-28T02:51:35;50.08;;;29.20;;
70169;SDS011;57543;45.442;9.212;2023-12-28T02:54:38;51.33;;;28.67;;
70169;SDS011;57543;45.442;9.212;2023-12-28T02:57:43;48.72;;;27.20;;
70169;SDS011;57543;45.442;9.212;2023-12-28T03:00:47;43.80;;;26.92;;
70169;SDS011;57543;45.442;9.212;2023-12-28T03:03:53;43.83;;;26.83;;
70169;SDS011;57543;45.442;9.212;2023-12-28T03:07:00;45.15;;;26.88;;
70169;SDS011;57543;45.442;9.212;2023-12-28T03:10:03;46.30;;;26.60;;
70169;SDS011;57543;45.442;9.212;2023-12-28T03:13:07;48.13;;;28.00;;
70169;SDS011;57543;45.442;9.212;2023-12-28T03:16:15;50.83;;;27.80;;
70169;SDS011;57543;45.442;9.212;2023-12-28T03:19:21;47.35;;;28.05;;
70169;SDS011;57543;45.442;9.212;2023-12-28T03:22:24;47.00;;;28.90;;
70169;SDS011;57543;45.442;9.212;2023-12-28T03:25:28;50.00;;;27.33;;
70169;SDS011;57543;45.442;9.212;2023-12-28T03:28:34;45.70;;;27.20;;
70169;SDS011;57543;45.442;9.212;2023-12-28T03:31:41;49.75;;;27.83;;
70169;SDS011;57543;45.442;9.212;2023-12-28T03:34:44;49.22;;;28.13;;
70169;SDS011;57543;45.442;9.212;2023-12-28T03:37:48;49.15;;;28.65;;
70169;SDS011;57543;45.442;9.212;2023-12-28T03:40:52;47.23;;;28.10;;
70169;SDS011;57543;45.442;9.212;2023-12-28T03:43:56;48.83;;;27.25;;
70169;SDS011;57543;45.442;9.212;2023-12-28T03:46:59;47.42;;;27.98;;
70169;SDS011;57543;45.442;9.212;2023-12-28T03:50:04;45.45;;;27.77;;
70169;SDS011;57543;45.442;9.212;2023-12-28T03:53:08;46.78;;;27.92;;
70169;SDS011;57543;45.442;9.212;2023-12-28T03:56:24;47.93;;;28.03;;
70169;SDS011;57543;45.442;9.212;2023-12-28T03:59:30;44.00;;;27.10;;
70169;SDS011;57543;45.442;9.212;2023-12-28T04:02:37;48.60;;;28.25;;
70169;SDS011;57543;45.442;9.212;2023-12-28T04:05:40;47.70;;;29.17;;
70169;SDS011;57543;45.442;9.212;2023-12-28T04:08:44;45.47;;;27.05;;
70169;SDS011;57543;45.442;9.212;2023-12-28T04:11:48;45.27;;;27.23;;
70169;SDS011;57543;45.442;9.212;2023-12-28T04:14:51;44.63;;;27.52;;
70169;SDS011;57543;45.442;9.212;2023-12-28T04:17:55;46.03;;;28.00;;
70169;SDS011;57543;45.442;9.212;2023-12-28T04:21:00;49.17;;;28.30;;
70169;SDS011;57543;45.442;9.212;2023-12-28T04:24:06;46.58;;;27.20;;
70169;SDS011;57543;45.442;9.212;2023-12-28T04:27:13;47.37;;;26.83;;
70169;SDS011;57543;45.442;9.212;2023-12-28T04:30:20;46.70;;;28.00;;
70169;SDS011;57543;45.442;9.212;2023-12-28T04:33:23;45.53;;;27.13;;
70169;SDS011;57543;45.442;9.212;2023-12-28T04:36:26;47.00;;;27.00;;
70169;SDS011;57543;45.442;9.212;2023-12-28T04:39:34;43.65;;;26.73;;
70169;SDS011;57543;45.442;9.212;2023-12-28T04:42:38;43.57;;;27.33;;
70169;SDS011;57543;45.442;9.212;2023-12-28T04:45:44;46.78;;;26.20;;
70169;SDS011;57543;45.442;9.212;2023-12-28T04:48:48;48.08;;;27.50;;
70169;SDS011;57543;45.442;9.212;2023-12-28T04:51:52;46.53;;;27.08;;
70169;SDS011;57543;45.442;9.212;2023-12-28T04:54:55;45.03;;;26.38;;
70169;SDS011;57543;45.442;9.212;2023-12-28T04:58:02;45.90;;;26.97;;
70169;SDS011;57543;45.442;9.212;2023-12-28T05:01:06;49.72;;;27.63;;
70169;SDS011;57543;45.442;9.212;2023-12-28T05:04:10;46.22;;;26.35;;
70169;SDS011;57543;45.442;9.212;2023-12-28T05:07:16;46.67;;;26.27;;
70169;SDS011;57543;45.442;9.212;2023-12-28T05:10:19;46.75;;;26.40;;
70169;SDS011;57543;45.442;9.212;2023-12-28T05:13:26;48.23;;;28.23;;
70169;SDS011;57543;45.442;9.212;2023-12-28T05:16:29;46.45;;;27.73;;
70169;SDS011;57543;45.442;9.212;2023-12-28T05:19:32;44.80;;;27.73;;
70169;SDS011;57543;45.442;9.212;2023-12-28T05:22:36;43.05;;;26.65;;
70169;SDS011;57543;45.442;9.212;2023-12-28T05:25:42;46.80;;;28.42;;
70169;SDS011;57543;45.442;9.212;2023-12-28T05:28:46;46.07;;;26.47;;
70169;SDS011;57543;45.442;9.212;2023-12-28T05:31:53;45.20;;;26.25;;
70169;SDS011;57543;45.442;9.212;2023-12-28T05:34:57;43.22;;;26.15;;
70169;SDS011;57543;45.442;9.212;2023-12-28T05:38:03;44.67;;;26.33;;
70169;SDS011;57543;45.442;9.212;2023-12-28T05:41:10;48.28;;;27.50;;
70169;SDS011;57543;45.442;9.212;2023-12-28T05:44:17;44.80;;;26.87;;
70169;SDS011;57543;45.442;9.212;2023-12-28T05:47:20;44.80;;;27.33;;
70169;SDS011;57543;45.442;9.212;2023-12-28T05:50:24;44.60;;;27.13;;
70169;SDS011;57543;45.442;9.212;2023-12-28T05:53:27;45.60;;;27.20;;
70169;SDS011;57543;45.442;9.212;2023-12-28T05:56:32;45.63;;;27.48;;
70169;SDS011;57543;45.442;9.212;2023-12-28T05:59:38;49.47;;;26.70;;
70169;SDS011;57543;45.442;9.212;2023-12-28T06:02:47;49.22;;;27.60;;
70169;SDS011;57543;45.442;9.212;2023-12-28T06:05:57;46.80;;;27.75;;
70169;SDS011;57543;45.442;9.212;2023-12-28T06:09:00;48.47;;;27.88;;
70169;SDS011;57543;45.442;9.212;2023-12-28T06:12:06;46.33;;;27.73;;
70169;SDS011;57543;45.442;9.212;2023-12-28T06:15:11;42.93;;;26.00;;
70169;SDS011;57543;45.442;9.212;2023-12-28T06:18:14;46.38;;;27.63;;
70169;SDS011;57543;45.442;9.212;2023-12-28T06:21:17;47.00;;;27.17;;
70169;SDS011;57543;45.442;9.212;2023-12-28T06:24:24;48.55;;;26.73;;
70169;SDS011;57543;45.442;9.212;2023-12-28T06:27:27;45.30;;;27.42;;
70169;SDS011;57543;45.442;9.212;2023-12-28T06:30:34;47.77;;;28.50;;
70169;SDS011;57543;45.442;9.212;2023-12-28T06:33:37;49.42;;;28.70;;
70169;SDS011;57543;45.442;9.212;2023-12-28T06:36:41;48.95;;;27.30;;
70169;SDS011;57543;45.442;9.212;2023-12-28T06:39:46;46.63;;;26.88;;
70169;SDS011;57543;45.442;9.212;2023-12-28T06:42:52;46.83;;;27.40;;
70169;SDS011;57543;45.442;9.212;2023-12-28T06:45:56;51.73;;;28.13;;
70169;SDS011;57543;45.442;9.212;2023-12-28T06:49:00;50.03;;;28.58;;
70169;SDS011;57543;45.442;9.212;2023-12-28T06:52:04;49.75;;;29.38;;
70169;SDS011;57543;45.442;9.212;2023-12-28T06:55:08;50.00;;;28.98;;
70169;SDS011;57543;45.442;9.212;2023-12-28T06:58:12;50.33;;;28.77;;
70169;SDS011;57543;45.442;9.212;2023-12-28T07:01:16;50.63;;;30.10;;
70169;SDS011;57543;45.442;9.212;2023-12-28T07:04:22;46.67;;;28.67;;
70169;SDS011;57543;45.442;9.212;2023-12-28T07:07:28;47.55;;;28.25;;
70169;SDS011;57543;45.442;9.212;2023-12-28T07:10:31;42.85;;;27.33;;
70169;SDS011;57543;45.442;9.212;2023-12-28T07:13:35;41.10;;;26.85;;
70169;SDS011;57543;45.442;9.212;2023-12-28T07:16:42;44.67;;;26.53;;
70169;SDS011;57543;45.442;9.212;2023-12-28T07:19:45;46.83;;;27.17;;
70169;SDS011;57543;45.442;9.212;2023-12-28T07:22:49;43.03;;;26.17;;
70169;SDS011;57543;45.442;9.212;2023-12-28T07:25:53;47.55;;;26.63;;
70169;SDS011;57543;45.442;9.212;2023-12-28T07:28:56;43.22;;;27.55;;
70169;SDS011;57543;45.442;9.212;2023-12-28T07:32:00;42.43;;;25.53;;
70169;SDS011;57543;45.442;9.212;2023-12-28T07:35:05;42.47;;;26.02;;
70169;SDS011;57543;45.442;9.212;2023-12-28T07:38:09;46.30;;;26.83;;
70169;SDS011;57543;45.442;9.212;2023-12-28T07:41:13;43.60;;;26.10;;
70169;SDS011;57543;45.442;9.212;2023-12-28T07:44:17;44.75;;;28.08;;
70169;SDS011;57543;45.442;9.212;2023-12-28T07:47:22;44.00;;;26.93;;
70169;SDS011;57543;45.442;9.212;2023-12-28T07:50:26;43.35;;;25.38;;
70169;SDS011;57543;45.442;9.212;2023-12-28T07:53:30;46.25;;;27.05;;
70169;SDS011;57543;45.442;9.212;2023-12-28T07:56:34;43.33;;;26.70;;
70169;SDS011;57543;45.442;9.212;2023-12-28T07:59:41;46.28;;;26.92;;
70169;SDS011;57543;45.442;9.212;2023-12-28T08:02:44;44.40;;;25.93;;
70169;SDS011;57543;45.442;9.212;2023-12-28T08:05:47;43.50;;;26.33;;
70169;SDS011;57543;45.442;9.212;2023-12-28T08:08:52;44.58;;;24.80;;
70169;SDS011;57543;45.442;9.212;2023-12-28T08:11:57;40.60;;;24.90;;
70169;SDS011;57543;45.442;9.212;2023-12-28T08:15:04;40.25;;;24.35;;
70169;SDS011;57543;45.442;9.212;2023-12-28T08:18:08;42.93;;;25.13;;
70169;SDS011;57543;45.442;9.212;2023-12-28T08:21:12;38.55;;;24.50;;
70169;SDS011;57543;45.442;9.212;2023-12-28T08:24:18;41.17;;;25.15;;
70169;SDS011;57543;45.442;9.212;2023-12-28T08:27:24;41.50;;;24.13;;
70169;SDS011;57543;45.442;9.212;2023-12-28T08:30:28;40.75;;;24.25;;
70169;SDS011;57543;45.442;9.212;2023-12-28T08:33:31;40.57;;;25.53;;
70169;SDS011;57543;45.442;9.212;2023-12-28T08:36:35;40.28;;;24.33;;
70169;SDS011;57543;45.442;9.212;2023-12-28T08:39:39;42.05;;;24.42;;
70169;SDS011;57543;45.442;9.212;2023-12-28T08:42:43;37.42;;;23.30;;
70169;SDS011;57543;45.442;9.212;2023-12-28T08:45:48;38.70;;;22.75;;
70169;SDS011;57543;45.442;9.212;2023-12-28T08:48:51;39.73;;;22.77;;
70169;SDS011;57543;45.442;9.212;2023-12-28T08:51:55;36.60;;;22.60;;
70169;SDS011;57543;45.442;9.212;2023-12-28T08:55:00;37.38;;;23.35;;
70169;SDS011;57543;45.442;9.212;2023-12-28T08:58:04;37.37;;;22.33;;
70169;SDS011;57543;45.442;9.212;2023-12-28T09:01:07;37.38;;;22.15;;
70169;SDS011;57543;45.442;9.212;2023-12-28T09:04:10;39.42;;;23.63;;
70169;SDS011;57543;45.442;9.212;2023-12-28T09:07:14;39.83;;;23.30;;
70169;SDS011;57543;45.442;9.212;2023-12-28T09:10:19;37.83;;;21.98;;
70169;SDS011;57543;45.442;9.212;2023-12-28T09:13:25;37.17;;;22.00;;
70169;SDS011;57543;45.442;9.212;2023-12-28T09:16:29;38.92;;;21.73;;
70169;SDS011;57543;45.442;9.212;2023-12-28T09:19:32;36.42;;;21.30;;
70169;SDS011;57543;45.442;9.212;2023-12-28T09:22:36;31.42;;;19.63;;
70169;SDS011;57543;45.442;9.212;2023-12-28T09:25:40;35.25;;;19.63;;
70169;SDS011;57543;45.442;9.212;2023-12-28T09:28:46;29.83;;;19.30;;
70169;SDS011;57543;45.442;9.212;2023-12-28T09:31:50;34.83;;;19.95;;
70169;SDS011;57543;45.442;9.212;2023-12-28T09:34:53;36.55;;;20.10;;
70169;SDS011;57543;45.442;9.212;2023-12-28T09:37:57;33.55;;;19.48;;
70169;SDS011;57543;45.442;9.212;2023-12-28T09:41:25;33.38;;;19.92;;
70169;SDS011;57543;45.442;9.212;2023-12-28T09:44:30;32.87;;;18.83;;
70169;SDS011;57543;45.442;9.212;2023-12-28T09:47:33;37.30;;;20.10;;
70169;SDS011;57543;45.442;9.212;2023-12-28T09:50:37;32.97;;;19.02;;
70169;SDS011;57543;45.442;9.212;2023-12-28T09:53:42;29.25;;;18.30;;
70169;SDS011;57543;45.442;9.212;2023-12-28T09:56:47;30.05;;;18.58;;
70169;SDS011;57543;45.442;9.212;2023-12-28T09:59:51;29.57;;;18.77;;
70169;SDS011;57543;45.442;9.212;2023-12-28T10:02:57;33.25;;;18.88;;
70169;SDS011;57543;45.442;9.212;2023-12-28T10:06:01;30.10;;;18.42;;
70169;SDS011;57543;45.442;9.212;2023-12-28T10:09:05;32.17;;;18.45;;
70169;SDS011;57543;45.442;9.212;2023-12-28T10:12:10;30.35;;;17.60;;
70169;SDS011;57543;45.442;9.212;2023-12-28T10:15:17;30.67;;;18.23;;
70169;SDS011;57543;45.442;9.212;2023-12-28T10:18:22;29.48;;;17.15;;
70169;SDS011;57543;45.442;9.212;2023-12-28T10:21:32;25.95;;;15.90;;
70169;SDS011;57543;45.442;9.212;2023-12-28T10:24:40;26.67;;;15.30;;
70169;SDS011;57543;45.442;9.212;2023-12-28T10:27:46;24.85;;;15.00;;
70169;SDS011;57543;45.442;9.212;2023-12-28T10:30:56;24.90;;;15.50;;
70169;SDS011;57543;45.442;9.212;2023-12-28T10:34:00;30.17;;;15.48;;
70169;SDS011;57543;45.442;9.212;2023-12-28T10:37:09;24.15;;;14.95;;
70169;SDS011;57543;45.442;9.212;2023-12-28T10:40:15;27.50;;;15.30;;
70169;SDS011;57543;45.442;9.212;2023-12-28T10:43:24;26.30;;;16.02;;
70169;SDS011;57543;45.442;9.212;2023-12-28T10:46:27;34.80;;;19.07;;
70169;SDS011;57543;45.442;9.212;2023-12-28T10:49:35;38.13;;;20.90;;
70169;SDS011;57543;45.442;9.212;2023-12-28T10:52:41;37.22;;;21.83;;
70169;SDS011;57543;45.442;9.212;2023-12-28T10:55:51;33.38;;;21.80;;
70169;SDS011;57543;45.442;9.212;2023-12-28T11:02:45;35.30;;;21.60;;
70169;SDS011;57543;45.442;9.212;2023-12-28T11:05:50;40.05;;;22.50;;
70169;SDS011;57543;45.442;9.212;2023-12-28T11:08:58;36.63;;;22.67;;
70169;SDS011;57543;45.442;9.212;2023-12-28T11:12:03;38.53;;;21.60;;
70169;SDS011;57543;45.442;9.212;2023-12-28T11:15:10;42.00;;;24.50;;
70169;SDS011;57543;45.442;9.212;2023-12-28T11:18:17;38.63;;;23.50;;
70169;SDS011;57543;45.442;9.212;2023-12-28T11:21:27;37.85;;;22.70;;
70169;SDS011;57543;45.442;9.212;2023-12-28T11:24:31;38.22;;;22.73;;
70169;SDS011;57543;45.442;9.212;2023-12-28T11:27:36;35.42;;;23.05;;
70169;SDS011;57543;45.442;9.212;2023-12-28T11:30:41;36.92;;;21.33;;
70169;SDS011;57543;45.442;9.212;2023-12-28T11:33:46;37.47;;;20.83;;
70169;SDS011;57543;45.442;9.212;2023-12-28T11:36:52;40.97;;;22.20;;
70169;SDS011;57543;45.442;9.212;2023-12-28T11:40:09;88.05;;;40.00;;
70169;SDS011;57543;45.442;9.212;2023-12-28T11:43:20;48.05;;;25.60;;
70169;SDS011;57543;45.442;9.212;2023-12-28T11:46:24;39.60;;;22.65;;
70169;SDS011;57543;45.442;9.212;2023-12-28T11:49:31;39.67;;;21.27;;
70169;SDS011;57543;45.442;9.212;2023-12-28T11:52:42;34.00;;;20.00;;
70169;SDS011;57543;45.442;9.212;2023-12-28T11:55:47;38.33;;;20.40;;
70169;SDS011;57543;45.442;9.212;2023-12-28T11:58:53;33.72;;;19.38;;
70169;SDS011;57543;45.442;9.212;2023-12-28T12:01:57;34.95;;;19.48;;
70169;SDS011;57543;45.442;9.212;2023-12-28T12:05:00;39.03;;;20.57;;
70169;SDS011;57543;45.442;9.212;2023-12-28T12:08:05;36.42;;;21.15;;
70169;SDS011;57543;45.442;9.212;2023-12-28T12:11:14;32.17;;;18.67;;
70169;SDS011;57543;45.442;9.212;2023-12-28T12:14:19;35.28;;;19.85;;
70169;SDS011;57543;45.442;9.212;2023-12-28T12:17:30;37.15;;;19.48;;
70169;SDS011;57543;45.442;9.212;2023-12-28T12:20:36;37.23;;;21.03;;
70169;SDS011;57543;45.442;9.212;2023-12-28T12:23:42;36.05;;;21.35;;
70169;SDS011;57543;45.442;9.212;2023-12-28T12:26:45;32.88;;;20.02;;
70169;SDS011;57543;45.442;9.212;2023-12-28T12:29:49;33.20;;;20.35;;
70169;SDS011;57543;45.442;9.212;2023-12-28T12:32:55;31.52;;;19.98;;
70169;SDS011;57543;45.442;9.212;2023-12-28T12:35:59;33.80;;;20.30;;
70169;SDS011;57543;45.442;9.212;2023-12-28T12:39:03;31.80;;;19.60;;
70169;SDS011;57543;45.442;9.212;2023-12-28T12:42:13;35.38;;;20.75;;
70169;SDS011;57543;45.442;9.212;2023-12-28T12:45:17;36.35;;;20.20;;
70169;SDS011;57543;45.442;9.212;2023-12-28T12:48:22;36.67;;;21.45;;
70169;SDS011;57543;45.442;9.212;2023-12-28T12:51:28;34.27;;;19.63;;
70169;SDS011;57543;45.442;9.212;2023-12-28T12:54:32;34.35;;;19.55;;
70169;SDS011;57543;45.442;9.212;2023-12-28T12:57:38;33.03;;;20.15;;
70169;SDS011;57543;45.442;9.212;2023-12-28T13:00:53;36.17;;;20.17;;
70169;SDS011;57543;45.442;9.212;2023-12-28T13:04:00;33.97;;;20.75;;
70169;SDS011;57543;45.442;9.212;2023-12-28T13:07:03;35.63;;;20.03;;
70169;SDS011;57543;45.442;9.212;2023-12-28T13:10:08;27.67;;;19.05;;
70169;SDS011;57543;45.442;9.212;2023-12-28T13:13:14;33.17;;;19.60;;
70169;SDS011;57543;45.442;9.212;2023-12-28T13:16:18;31.65;;;19.58;;
70169;SDS011;57543;45.442;9.212;2023-12-28T13:19:21;29.08;;;18.95;;
70169;SDS011;57543;45.442;9.212;2023-12-28T13:22:29;29.73;;;18.93;;
70169;SDS011;57543;45.442;9.212;2023-12-28T13:25:32;28.10;;;17.60;;
70169;SDS011;57543;45.442;9.212;2023-12-28T13:28:45;33.50;;;19.15;;
70169;SDS011;57543;45.442;9.212;2023-12-28T13:31:51;28.35;;;17.27;;
70169;SDS011;57543;45.442;9.212;2023-12-28T13:34:57;30.85;;;19.25;;
70169;SDS011;57543;45.442;9.212;2023-12-28T13:38:01;28.50;;;17.00;;
70169;SDS011;57543;45.442;9.212;2023-12-28T13:41:04;31.40;;;18.25;;
70169;SDS011;57543;45.442;9.212;2023-12-28T13:44:08;28.58;;;18.30;;
70169;SDS011;57543;45.442;9.212;2023-12-28T13:47:15;28.20;;;17.52;;
70169;SDS011;57543;45.442;9.212;2023-12-28T13:50:19;28.13;;;17.77;;
70169;SDS011;57543;45.442;9.212;2023-12-28T13:53:23;32.07;;;18.37;;
70169;SDS011;57543;45.442;9.212;2023-12-28T13:56:30;26.95;;;17.52;;
70169;SDS011;57543;45.442;9.212;2023-12-28T13:59:41;27.25;;;18.02;;
70169;SDS011;57543;45.442;9.212;2023-12-28T14:02:48;29.65;;;18.50;;
70169;SDS011;57543;45.442;9.212;2023-12-28T14:05:51;29.85;;;18.70;;
70169;SDS011;57543;45.442;9.212;2023-12-28T14:09:03;30.60;;;17.67;;
70169;SDS011;57543;45.442;9.212;2023-12-28T14:12:06;30.92;;;17.67;;
70169;SDS011;57543;45.442;9.212;2023-12-28T14:15:12;31.75;;;19.15;;
70169;SDS011;57543;45.442;9.212;2023-12-28T14:18:22;30.23;;;17.38;;
70169;SDS011;57543;45.442;9.212;2023-12-28T14:21:28;30.58;;;17.77;;
70169;SDS011;57543;45.442;9.212;2023-12-28T14:24:37;30.00;;;17.80;;
70169;SDS011;57543;45.442;9.212;2023-12-28T14:27:41;29.90;;;18.23;;
70169;SDS011;57543;45.442;9.212;2023-12-28T14:30:52;32.60;;;18.48;;
70169;SDS011;57543;45.442;9.212;2023-12-28T14:33:57;29.02;;;18.02;;
70169;SDS011;57543;45.442;9.212;2023-12-28T14:37:00;30.02;;;18.63;;
70169;SDS011;57543;45.442;9.212;2023-12-28T14:40:04;29.07;;;18.03;;
70169;SDS011;57543;45.442;9.212;2023-12-28T14:43:10;30.13;;;17.05;;
70169;SDS011;57543;45.442;9.212;2023-12-28T14:46:14;30.48;;;17.90;;
70169;SDS011;57543;45.442;9.212;2023-12-28T14:49:18;29.08;;;17.00;;
70169;SDS011;57543;45.442;9.212;2023-12-28T14:52:22;32.83;;;17.02;;
70169;SDS011;57543;45.442;9.212;2023-12-28T14:55:27;27.20;;;17.17;;
70169;SDS011;57543;45.442;9.212;2023-12-28T14:58:31;29.40;;;16.85;;
70169;SDS011;57543;45.442;9.212;2023-12-28T15:01:36;30.20;;;17.55;;
70169;SDS011;57543;45.442;9.212;2023-12-28T15:04:39;27.27;;;16.65;;
70169;SDS011;57543;45.442;9.212;2023-12-28T15:07:49;26.25;;;16.63;;
70169;SDS011;57543;45.442;9.212;2023-12-28T15:10:52;26.83;;;15.83;;
70169;SDS011;57543;45.442;9.212;2023-12-28T15:13:56;25.90;;;15.88;;
70169;SDS011;57543;45.442;9.212;2023-12-28T15:17:00;26.08;;;16.20;;
70169;SDS011;57543;45.442;9.212;2023-12-28T15:20:07;26.58;;;17.13;;
70169;SDS011;57543;45.442;9.212;2023-12-28T15:23:12;26.90;;;16.40;;
70169;SDS011;57543;45.442;9.212;2023-12-28T15:26:17;25.17;;;15.83;;
70169;SDS011;57543;45.442;9.212;2023-12-28T15:29:20;26.40;;;17.00;;
70169;SDS011;57543;45.442;9.212;2023-12-28T15:32:24;30.75;;;17.92;;
70169;SDS011;57543;45.442;9.212;2023-12-28T15:35:27;28.88;;;17.33;;
70169;SDS011;57543;45.442;9.212;2023-12-28T15:38:34;28.25;;;17.23;;
70169;SDS011;57543;45.442;9.212;2023-12-28T15:41:40;28.23;;;16.30;;
70169;SDS011;57543;45.442;9.212;2023-12-28T15:44:43;26.42;;;15.68;;
70169;SDS011;57543;45.442;9.212;2023-12-28T15:47:47;26.30;;;15.40;;
70169;SDS011;57543;45.442;9.212;2023-12-28T15:50:51;27.80;;;15.95;;
70169;SDS011;57543;45.442;9.212;2023-12-28T15:53:55;25.27;;;15.55;;
70169;SDS011;57543;45.442;9.212;2023-12-28T15:56:58;21.47;;;14.80;;
70169;SDS011;57543;45.442;9.212;2023-12-28T16:00:06;25.13;;;15.13;;
70169;SDS011;57543;45.442;9.212;2023-12-28T16:03:19;25.08;;;15.07;;
70169;SDS011;57543;45.442;9.212;2023-12-28T16:06:25;22.20;;;13.68;;
70169;SDS011;57543;45.442;9.212;2023-12-28T16:09:29;24.02;;;13.45;;
70169;SDS011;57543;45.442;9.212;2023-12-28T16:12:37;24.33;;;13.73;;
70169;SDS011;57543;45.442;9.212;2023-12-28T16:15:42;22.38;;;13.30;;
70169;SDS011;57543;45.442;9.212;2023-12-28T16:18:47;23.67;;;13.15;;
70169;SDS011;57543;45.442;9.212;2023-12-28T16:21:51;20.90;;;12.73;;
70169;SDS011;57543;45.442;9.212;2023-12-28T16:24:55;22.15;;;13.07;;
70169;SDS011;57543;45.442;9.212;2023-12-28T16:28:05;21.30;;;12.60;;
70169;SDS011;57543;45.442;9.212;2023-12-28T16:31:09;20.00;;;12.85;;
70169;SDS011;57543;45.442;9.212;2023-12-28T16:34:13;21.77;;;12.23;;
70169;SDS011;57543;45.442;9.212;2023-12-28T16:37:19;18.98;;;12.18;;
70169;SDS011;57543;45.442;9.212;2023-12-28T16:40:22;21.67;;;12.63;;
70169;SDS011;57543;45.442;9.212;2023-12-28T16:43:28;19.43;;;12.13;;
70169;SDS011;57543;45.442;9.212;2023-12-28T16:46:32;20.98;;;11.77;;
70169;SDS011;57543;45.442;9.212;2023-12-28T16:49:36;21.60;;;13.30;;
70169;SDS011;57543;45.442;9.212;2023-12-28T16:52:42;17.85;;;11.45;;
70169;SDS011;57543;45.442;9.212;2023-12-28T16:55:48;18.67;;;11.18;;
70169;SDS011;57543;45.442;9.212;2023-12-28T16:58:51;19.57;;;12.20;;
70169;SDS011;57543;45.442;9.212;2023-12-28T17:01:54;22.95;;;12.05;;
70169;SDS011;57543;45.442;9.212;2023-12-28T17:04:58;18.20;;;11.65;;
70169;SDS011;57543;45.442;9.212;2023-12-28T17:08:02;18.25;;;11.23;;
70169;SDS011;57543;45.442;9.212;2023-12-28T17:11:09;20.48;;;12.20;;
70169;SDS011;57543;45.442;9.212;2023-12-28T17:14:18;22.43;;;12.47;;
70169;SDS011;57543;45.442;9.212;2023-12-28T17:17:22;20.23;;;11.48;;
70169;SDS011;57543;45.442;9.212;2023-12-28T17:20:26;19.83;;;12.43;;
70169;SDS011;57543;45.442;9.212;2023-12-28T17:26:39;18.08;;;11.40;;
70169;SDS011;57543;45.442;9.212;2023-12-28T17:29:54;18.40;;;11.60;;
70169;SDS011;57543;45.442;9.212;2023-12-28T17:33:09;18.52;;;11.45;;
70169;SDS011;57543;45.442;9.212;2023-12-28T17:36:16;20.67;;;11.88;;
70169;SDS011;57543;45.442;9.212;2023-12-28T17:39:20;18.00;;;11.27;;
70169;SDS011;57543;45.442;9.212;2023-12-28T17:42:27;20.80;;;11.30;;
70169;SDS011;57543;45.442;9.212;2023-12-28T17:45:39;17.30;;;10.40;;
70169;SDS011;57543;45.442;9.212;2023-12-28T17:49:00;18.73;;;10.60;;
70169;SDS011;57543;45.442;9.212;2023-12-28T17:52:06;18.23;;;10.90;;
70169;SDS011;57543;45.442;9.212;2023-12-28T17:55:14;17.52;;;10.65;;
70169;SDS011;57543;45.442;9.212;2023-12-28T17:58:20;20.95;;;12.20;;
70169;SDS011;57543;45.442;9.212;2023-12-28T18:01:26;19.70;;;11.37;;
70169;SDS011;57543;45.442;9.212;2023-12-28T18:04:30;21.83;;;12.13;;
70169;SDS011;57543;45.442;9.212;2023-12-28T18:07:33;17.02;;;10.88;;
70169;SDS011;57543;45.442;9.212;2023-12-28T18:10:37;17.73;;;10.90;;
70169;SDS011;57543;45.442;9.212;2023-12-28T18:13:42;17.30;;;10.32;;